Meath Environmental Platform

Observations

Time Sensor AQI SAQ Temp °C Hum % Pres Pa CO μg/m³ H₂S μg/m³ NO μg/m³ NO₂ μg/m³ O₃ μg/m³ SO₂ μg/m³ CO₂e PPM VOC PPM PM1 μg/m³ PM2.5 μg/m³ PM4 μg/m³ PM10 μg/m³ TPS µm
Thursday 13 August 2026
10:10 Trim Market St 2 28 56 57,739 0 0 0.7 13.45 64.6 0 1.43 3.21 3.98
10:10 Trim Patrick St 1 28.8 54 70,918 0 0 0.8 13.47 58.1 13.17 3.71 8.45 9.29
10:09 Trim Patrick St 1 28.9 54 70,795 0 0 0.82 13.53 59.24 13.58 2.86 6.95 7.64
10:08 Trim Patrick St 1 28.9 53 70,704 0 0 0.83 13.32 58.33 13.48 2 6.96 7.65
10:07 Trim Patrick St 1 28.9 53 70,633 0 0 0.89 12.37 57.32 13.65 2 6.97 7.66
10:07 Trim Market St 2 28.1 56 57,746 0 0 0.71 13.41 56.32 0 0.71 2.72 3.25
10:06 Trim Patrick St 1 28.9 53 70,604 0 0 0.89 12.98 58.24 12.96 2.86 7.73 8.5
10:06 Trim Market St 2 28.1 56 57,745 0 0 0.69 13.56 57.85 0 0.71 2.22 2.54
10:05 Trim Patrick St 1 28.9 53 70,504 0 0 0.92 12.39 57.45 13.29 3.71 8.5 9.34
10:04 Trim Patrick St 1 28.9 53 70,490 0 0 0.91 11.69 56.04 12.67 3.71 8.51 9.36
10:03 Trim Patrick St 1 29 53 70,474 0 0 0.88 11.08 52.15 12.62 2 6.24 6.86
10:02 Trim Patrick St 1 29 53 70,484 0 0 0.88 10.74 48.63 12.65 2.86 7.75 8.53
10:01 Trim Patrick St 1 29.1 53 70,526 0 0 0.92 13.01 53.88 13.15 2.86 6.99 7.69
10:01 Trim Market St 2 28.2 56 57,725 0 0 0.76 13.7 49.61 0 0 2.71 3.26
10:00 Trim Patrick St 1 29.1 53 70,586 0 0 0.91 12.99 53.95 12.9 3.71 8.5 9.34
09:59 Trim Patrick St 1 29.1 53 70,635 0 0 0.87 12.43 51.46 12.97 2.86 7.75 8.53
09:59 Trim Market St 2 28.2 56 57,708 0 0 0.71 13.66 56.28 0 1.43 3.71 4.69
09:58 Trim Patrick St 1 29.1 53 70,728 0 0 0.91 12.43 53.15 12.6 2.86 6.97 7.67
09:57 Trim Patrick St 1 29.1 53 70,888 0 0 0.91 11.73 53.07 12.9 2 6.99 7.69
09:56 Trim Patrick St 1 29.1 53 71,100 0 0 0.87 12.47 56.64 12.8 2 6.22 6.85